Time;durP1;ratioP1;P1;durP2;ratioP2;P2;SDS_P1;SDS_P2;PMS_P1;PMS_P2;Temp;Humidity;BMP_temperature;BMP_pressure;BME280_temperature;BME280_humidity;BME280_pressure;Samples;Min_cycle;Max_cycle;Signal;HPM_P1;HPM_P2
2022/07/04 00:00:17;;;;;;;6.47;4.43;;;;;;;;;;5039609;28;20171;-41
2022/07/04 00:02:43;;;;;;;7.73;4.60;;;;;;;;;;5040289;28;20240;-41
2022/07/04 00:05:11;;;;;;;10.17;5.17;;;;;;;;;;5038523;28;20193;-41
2022/07/04 00:07:38;;;;;;;10.20;4.60;;;;;;;;;;5032860;28;20187;-41
2022/07/04 00:10:05;;;;;;;8.47;4.53;;;;;;;;;;5038532;28;20522;-40
2022/07/04 00:12:31;;;;;;;10.10;4.90;;;;;;;;;;5041670;28;21186;-39
2022/07/04 00:14:57;;;;;;;8.20;5.03;;;;;;;;;;5043194;28;20187;-40
2022/07/04 00:17:23;;;;;;;7.87;4.77;;;;;;;;;;5043811;28;20817;-41
2022/07/04 00:19:49;;;;;;;9.30;4.70;;;;;;;;;;5043334;28;20402;-41
2022/07/04 00:22:15;;;;;;;9.53;5.13;;;;;;;;;;5042987;28;20179;-41
2022/07/04 00:24:41;;;;;;;5.83;4.47;;;;;;;;;;5043085;28;20336;-40
2022/07/04 00:27:07;;;;;;;7.73;4.77;;;;;;;;;;5041807;28;20172;-40
2022/07/04 00:29:34;;;;;;;9.70;4.80;;;;;;;;;;5040215;28;20171;-40
2022/07/04 00:32:00;;;;;;;9.47;4.77;;;;;;;;;;5043255;28;20560;-41
2022/07/04 00:34:27;;;;;;;8.83;5.00;;;;;;;;;;5044924;28;21103;-41
2022/07/04 00:36:53;;;;;;;11.10;5.20;;;;;;;;;;5042730;28;20179;-40
2022/07/04 00:39:19;;;;;;;10.13;5.00;;;;;;;;;;5039896;28;20246;-40
2022/07/04 00:41:45;;;;;;;8.80;4.83;;;;;;;;;;5044829;28;20248;-41
2022/07/04 00:44:12;;;;;;;8.33;4.60;;;;;;;;;;5046068;28;20179;-40
2022/07/04 00:46:38;;;;;;;6.43;4.53;;;;;;;;;;5045750;28;20181;-41
2022/07/04 00:49:05;;;;;;;8.17;5.10;;;;;;;;;;5038471;28;20315;-40
2022/07/04 00:51:31;;;;;;;7.43;4.97;;;;;;;;;;5042772;28;20201;-41
2022/07/04 00:53:57;;;;;;;9.67;5.20;;;;;;;;;;5042772;28;20182;-41
2022/07/04 00:56:24;;;;;;;7.53;5.07;;;;;;;;;;5042636;28;20756;-41
2022/07/04 00:58:51;;;;;;;7.03;5.10;;;;;;;;;;5042910;28;20495;-40
2022/07/04 01:01:18;;;;;;;7.33;5.37;;;;;;;;;;5043170;28;20546;-40
2022/07/04 01:03:44;;;;;;;9.50;5.63;;;;;;;;;;5042884;28;20549;-41
2022/07/04 01:06:10;;;;;;;10.27;5.63;;;;;;;;;;5041066;28;21055;-41
2022/07/04 01:08:41;;;;;;;7.60;5.37;;;;;;;;;;5041626;28;20271;-40
2022/07/04 01:11:07;;;;;;;7.57;5.70;;;;;;;;;;5043796;28;22635;-41
2022/07/04 01:13:34;;;;;;;9.23;5.27;;;;;;;;;;5044166;28;20187;-40
2022/07/04 01:16:00;;;;;;;10.37;5.10;;;;;;;;;;5046392;28;20179;-41
2022/07/04 01:18:26;;;;;;;10.37;5.57;;;;;;;;;;5039693;28;20638;-40
2022/07/04 01:20:52;;;;;;;7.63;5.20;;;;;;;;;;5040610;28;20745;-41
2022/07/04 01:23:18;;;;;;;8.07;5.17;;;;;;;;;;5042509;28;20172;-39
2022/07/04 01:25:45;;;;;;;7.77;5.00;;;;;;;;;;5042145;28;20389;-40
2022/07/04 01:28:11;;;;;;;8.27;5.00;;;;;;;;;;5040477;28;20185;-41
2022/07/04 01:30:37;;;;;;;9.30;5.50;;;;;;;;;;5042725;28;20678;-40
2022/07/04 01:33:04;;;;;;;8.53;5.23;;;;;;;;;;5042908;28;20279;-38
2022/07/04 01:35:30;;;;;;;8.00;5.47;;;;;;;;;;5039380;28;21067;-40
2022/07/04 01:37:56;;;;;;;8.50;5.80;;;;;;;;;;5039137;28;20207;-40
2022/07/04 01:40:22;;;;;;;9.30;5.80;;;;;;;;;;5040777;28;20400;-40
2022/07/04 01:42:48;;;;;;;5.80;5.20;;;;;;;;;;5046365;28;20246;-41
2022/07/04 01:45:15;;;;;;;7.37;5.50;;;;;;;;;;5041687;28;20176;-40
2022/07/04 01:47:41;;;;;;;9.17;5.77;;;;;;;;;;5036669;28;20189;-43
2022/07/04 01:50:08;;;;;;;7.43;5.90;;;;;;;;;;5042743;28;20182;-40
2022/07/04 01:52:35;;;;;;;9.50;6.13;;;;;;;;;;5043299;28;20184;-39
2022/07/04 01:55:01;;;;;;;10.03;6.60;;;;;;;;;;5038535;28;20190;-40
2022/07/04 01:57:27;;;;;;;8.27;6.00;;;;;;;;;;5042957;28;20183;-41
2022/07/04 02:02:38;;;;;;;8.03;6.20;;;;;;;;;;5038464;28;21230;-41
2022/07/04 02:05:05;;;;;;;9.33;5.80;;;;;;;;;;5042065;28;20175;-39
2022/07/04 02:07:31;;;;;;;5.97;5.37;;;;;;;;;;5043316;28;20170;-40
2022/07/04 02:09:57;;;;;;;7.93;5.27;;;;;;;;;;5044293;28;20507;-41
2022/07/04 02:15:08;;;;;;;6.77;5.80;;;;;;;;;;5043738;28;20193;-40
2022/07/04 02:17:34;;;;;;;6.77;5.60;;;;;;;;;;5044213;28;20580;-40
2022/07/04 02:20:00;;;;;;;8.53;5.90;;;;;;;;;;5044638;28;21089;-40
2022/07/04 02:22:26;;;;;;;10.00;5.97;;;;;;;;;;5038110;28;20428;-39
2022/07/04 02:24:52;;;;;;;5.97;5.37;;;;;;;;;;5040505;28;20237;-39
2022/07/04 02:27:19;;;;;;;8.07;5.33;;;;;;;;;;5041006;28;20741;-40
2022/07/04 02:29:45;;;;;;;9.93;5.63;;;;;;;;;;5042084;28;20206;-40
2022/07/04 02:32:11;;;;;;;5.83;5.00;;;;;;;;;;5040467;28;20551;-40
2022/07/04 02:34:40;;;;;;;11.47;6.27;;;;;;;;;;5037699;28;20282;-42
2022/07/04 02:37:06;;;;;;;13.83;7.80;;;;;;;;;;5038176;28;20293;-41
2022/07/04 02:39:32;;;;;;;10.33;6.90;;;;;;;;;;5042012;28;20512;-42
2022/07/04 02:41:58;;;;;;;10.10;6.70;;;;;;;;;;5042930;28;20493;-42
2022/07/04 02:44:24;;;;;;;9.13;6.50;;;;;;;;;;5043057;28;20174;-42
2022/07/04 02:46:50;;;;;;;10.53;6.63;;;;;;;;;;5040395;28;20519;-42
2022/07/04 02:49:16;;;;;;;10.53;6.60;;;;;;;;;;5039597;28;20467;-41
2022/07/04 02:51:42;;;;;;;9.63;6.00;;;;;;;;;;5038868;28;20761;-40
2022/07/04 02:54:09;;;;;;;7.77;6.23;;;;;;;;;;5038924;28;20180;-42
2022/07/04 02:56:35;;;;;;;9.70;6.80;;;;;;;;;;5043141;28;20402;-42
2022/07/04 02:59:01;;;;;;;11.57;7.47;;;;;;;;;;5041768;28;20203;-43
2022/07/04 03:01:27;;;;;;;13.07;6.60;;;;;;;;;;5040623;28;20183;-42
2022/07/04 03:03:53;;;;;;;9.30;6.57;;;;;;;;;;5040929;28;20167;-42
2022/07/04 03:06:19;;;;;;;13.53;7.33;;;;;;;;;;5040350;28;20729;-43
2022/07/04 03:08:45;;;;;;;8.57;6.50;;;;;;;;;;5036675;28;20434;-40
2022/07/04 03:11:11;;;;;;;13.53;7.00;;;;;;;;;;5043918;28;20853;-40
2022/07/04 03:13:39;;;;;;;9.57;7.10;;;;;;;;;;5044064;28;20259;-41
2022/07/04 03:16:05;;;;;;;9.13;6.63;;;;;;;;;;5042877;28;20685;-39
2022/07/04 03:18:31;;;;;;;10.43;7.20;;;;;;;;;;5039829;28;21203;-39
2022/07/04 03:20:57;;;;;;;9.73;6.37;;;;;;;;;;5040223;28;20722;-40
2022/07/04 03:23:23;;;;;;;9.80;6.53;;;;;;;;;;5045069;28;20279;-40
2022/07/04 03:25:50;;;;;;;10.37;6.87;;;;;;;;;;5039396;28;20476;-39
2022/07/04 03:28:16;;;;;;;8.50;6.57;;;;;;;;;;5040103;28;20637;-40
2022/07/04 03:30:42;;;;;;;10.47;7.33;;;;;;;;;;5040726;28;20479;-39
2022/07/04 03:33:08;;;;;;;13.60;8.73;;;;;;;;;;5037261;28;20175;-40
2022/07/04 03:35:34;;;;;;;9.43;7.60;;;;;;;;;;5042548;28;20190;-40
2022/07/04 03:38:00;;;;;;;11.63;7.97;;;;;;;;;;5040585;28;21252;-40
2022/07/04 03:40:30;;;;;;;10.73;7.77;;;;;;;;;;5041002;28;20493;-39
2022/07/04 03:42:56;;;;;;;11.33;8.40;;;;;;;;;;5039916;28;20186;-41
2022/07/04 03:45:23;;;;;;;10.70;8.07;;;;;;;;;;5041386;28;20215;-41
2022/07/04 03:47:50;;;;;;;14.10;9.57;;;;;;;;;;5039606;28;21006;-42
2022/07/04 03:50:17;;;;;;;10.20;7.50;;;;;;;;;;5042434;28;20195;-42
2022/07/04 03:52:43;;;;;;;10.93;8.83;;;;;;;;;;5044075;28;20187;-42
2022/07/04 03:55:09;;;;;;;12.47;7.80;;;;;;;;;;5044158;28;20294;-39
2022/07/04 03:57:35;;;;;;;11.07;7.73;;;;;;;;;;5045281;28;20984;-40
2022/07/04 04:00:02;;;;;;;14.93;8.60;;;;;;;;;;5047172;28;20629;-40
2022/07/04 04:02:28;;;;;;;12.07;8.00;;;;;;;;;;5045089;28;20944;-39
2022/07/04 04:07:39;;;;;;;13.50;9.87;;;;;;;;;;5043199;28;20190;-39
2022/07/04 04:10:06;;;;;;;15.20;11.17;;;;;;;;;;5041840;28;20715;-40
2022/07/04 04:12:32;;;;;;;16.80;12.20;;;;;;;;;;5043908;28;20175;-40
2022/07/04 04:14:58;;;;;;;15.53;13.40;;;;;;;;;;5043258;28;20351;-40
2022/07/04 04:17:24;;;;;;;18.90;14.63;;;;;;;;;;5044010;28;20199;-38
2022/07/04 04:19:50;;;;;;;18.30;15.13;;;;;;;;;;5046800;28;20174;-41
2022/07/04 04:22:16;;;;;;;21.10;16.20;;;;;;;;;;5048167;28;20292;-42
2022/07/04 04:24:43;;;;;;;16.87;15.10;;;;;;;;;;5043755;28;20175;-43
2022/07/04 04:27:09;;;;;;;18.70;16.40;;;;;;;;;;5043323;28;20919;-43
2022/07/04 04:29:35;;;;;;;19.83;16.23;;;;;;;;;;5047467;28;20244;-42
2022/07/04 04:32:01;;;;;;;14.67;13.13;;;;;;;;;;5047062;28;20193;-42
2022/07/04 04:34:27;;;;;;;21.33;16.70;;;;;;;;;;5043432;28;20179;-41
2022/07/04 04:36:53;;;;;;;18.97;16.33;;;;;;;;;;5045810;28;20191;-43
2022/07/04 04:39:19;;;;;;;22.40;17.87;;;;;;;;;;5050292;28;20224;-43
2022/07/04 04:41:45;;;;;;;17.60;15.80;;;;;;;;;;5046300;28;20178;-43
2022/07/04 04:44:11;;;;;;;22.73;15.83;;;;;;;;;;5045938;28;20856;-43
2022/07/04 04:46:37;;;;;;;18.17;13.60;;;;;;;;;;5044271;28;21543;-43
2022/07/04 04:49:03;;;;;;;19.63;15.10;;;;;;;;;;5049078;28;20403;-42
2022/07/04 04:51:29;;;;;;;19.90;16.27;;;;;;;;;;5044113;28;20183;-43
2022/07/04 04:53:55;;;;;;;17.90;16.10;;;;;;;;;;5041054;28;20175;-42
2022/07/04 04:56:22;;;;;;;21.30;16.07;;;;;;;;;;5047651;28;20499;-43
2022/07/04 04:58:48;;;;;;;16.43;14.30;;;;;;;;;;5053216;28;20612;-41
2022/07/04 05:01:14;;;;;;;17.63;15.47;;;;;;;;;;5055683;28;20175;-42
2022/07/04 05:03:40;;;;;;;15.80;13.27;;;;;;;;;;5050418;28;20171;-43
2022/07/04 05:06:06;;;;;;;17.03;13.13;;;;;;;;;;5051467;28;20270;-42
2022/07/04 05:08:32;;;;;;;16.53;13.50;;;;;;;;;;5053800;28;20687;-43
2022/07/04 05:10:58;;;;;;;16.37;14.43;;;;;;;;;;5052398;28;20171;-41
2022/07/04 05:13:24;;;;;;;15.73;13.77;;;;;;;;;;5048594;28;20189;-42
2022/07/04 05:15:51;;;;;;;17.83;14.20;;;;;;;;;;5046423;28;20190;-43
2022/07/04 05:18:17;;;;;;;17.57;13.83;;;;;;;;;;5047455;28;20210;-43
2022/07/04 05:20:43;;;;;;;15.93;12.40;;;;;;;;;;5047066;28;20480;-42
2022/07/04 05:23:09;;;;;;;18.63;13.20;;;;;;;;;;5045599;28;20850;-42
2022/07/04 05:25:35;;;;;;;20.43;13.63;;;;;;;;;;5043003;28;20937;-42
2022/07/04 05:28:01;;;;;;;13.47;11.87;;;;;;;;;;5043593;28;20224;-43
2022/07/04 05:30:27;;;;;;;19.90;12.60;;;;;;;;;;5046709;28;20190;-43
2022/07/04 05:32:54;;;;;;;13.40;9.93;;;;;;;;;;5040553;28;22107;-43
2022/07/04 05:35:20;;;;;;;15.17;11.43;;;;;;;;;;5046809;28;20186;-42
2022/07/04 05:37:46;;;;;;;21.23;11.50;;;;;;;;;;5048021;28;20301;-42
2022/07/04 05:40:12;;;;;;;12.33;9.90;;;;;;;;;;5045304;28;20257;-43
2022/07/04 05:42:38;;;;;;;13.80;8.43;;;;;;;;;;5049884;28;20573;-42
2022/07/04 05:45:04;;;;;;;17.30;8.53;;;;;;;;;;5049556;28;20494;-42
2022/07/04 05:47:31;;;;;;;14.60;8.93;;;;;;;;;;5051639;28;20175;-43
2022/07/04 05:49:58;;;;;;;13.03;8.30;;;;;;;;;;5053331;28;20569;-43
2022/07/04 05:52:24;;;;;;;13.60;7.60;;;;;;;;;;5051118;28;20220;-39
2022/07/04 05:54:50;;;;;;;10.80;7.03;;;;;;;;;;5047163;28;20228;-38
2022/07/04 05:57:16;;;;;;;7.73;6.20;;;;;;;;;;5049592;28;20729;-39
2022/07/04 05:59:42;;;;;;;10.00;6.97;;;;;;;;;;5054180;28;20667;-40
2022/07/04 06:02:08;;;;;;;13.13;7.67;;;;;;;;;;5044428;28;20829;-40
2022/07/04 06:04:35;;;;;;;13.33;6.90;;;;;;;;;;5042017;28;20407;-40
2022/07/04 06:07:01;;;;;;;10.50;6.10;;;;;;;;;;5047173;28;21151;-40
2022/07/04 06:09:27;;;;;;;11.27;6.73;;;;;;;;;;5047871;28;20924;-40
2022/07/04 06:11:53;;;;;;;11.30;6.40;;;;;;;;;;5043412;28;20581;-40
2022/07/04 06:14:19;;;;;;;9.77;6.30;;;;;;;;;;5038942;28;20180;-39
2022/07/04 06:16:45;;;;;;;10.97;5.33;;;;;;;;;;5039374;28;20727;-40
2022/07/04 06:19:11;;;;;;;9.27;5.23;;;;;;;;;;5043791;28;20292;-40
2022/07/04 06:21:37;;;;;;;10.07;5.60;;;;;;;;;;5043598;28;20176;-43
2022/07/04 06:24:03;;;;;;;9.80;5.00;;;;;;;;;;5039467;28;20686;-42
2022/07/04 06:26:30;;;;;;;8.70;5.47;;;;;;;;;;5041867;28;20418;-43
2022/07/04 06:28:57;;;;;;;9.07;5.60;;;;;;;;;;5043432;28;20802;-43
2022/07/04 06:31:23;;;;;;;10.87;5.00;;;;;;;;;;5042420;28;20513;-43
2022/07/04 06:36:34;;;;;;;8.93;4.60;;;;;;;;;;5042519;28;20751;-42
2022/07/04 06:39:00;;;;;;;11.83;5.60;;;;;;;;;;5038204;28;20324;-43
2022/07/04 06:41:26;;;;;;;9.17;5.60;;;;;;;;;;5028899;28;21116;-42
2022/07/04 06:43:52;;;;;;;13.57;5.40;;;;;;;;;;5042852;28;21043;-42
2022/07/04 06:46:18;;;;;;;10.53;5.47;;;;;;;;;;5047527;28;20657;-43
2022/07/04 06:48:44;;;;;;;10.43;4.73;;;;;;;;;;5042030;28;20794;-42
2022/07/04 06:51:11;;;;;;;11.50;5.73;;;;;;;;;;5045744;28;20214;-43
2022/07/04 06:53:37;;;;;;;7.87;4.97;;;;;;;;;;5044026;28;20947;-42
2022/07/04 06:56:03;;;;;;;9.03;5.13;;;;;;;;;;5044307;28;21064;-42
2022/07/04 06:58:29;;;;;;;8.17;5.00;;;;;;;;;;5045324;28;20229;-43
2022/07/04 07:00:55;;;;;;;6.70;4.77;;;;;;;;;;5044222;28;20222;-42
2022/07/04 07:03:21;;;;;;;6.70;4.63;;;;;;;;;;5044474;28;20181;-43
2022/07/04 07:05:47;;;;;;;10.87;5.30;;;;;;;;;;5046906;28;20694;-43
2022/07/04 07:08:13;;;;;;;12.27;5.20;;;;;;;;;;5046369;28;20547;-39
2022/07/04 07:10:40;;;;;;;10.50;5.00;;;;;;;;;;5044141;28;20289;-39
2022/07/04 07:13:06;;;;;;;13.07;5.20;;;;;;;;;;5044789;28;20651;-40
2022/07/04 07:15:35;;;;;;;7.97;4.93;;;;;;;;;;5043217;28;20177;-43
2022/07/04 07:18:01;;;;;;;10.80;5.60;;;;;;;;;;5042406;28;20687;-43
2022/07/04 07:20:27;;;;;;;9.40;5.03;;;;;;;;;;5043009;28;20311;-43
2022/07/04 07:22:53;;;;;;;9.90;5.53;;;;;;;;;;5045386;28;20946;-40
2022/07/04 07:25:19;;;;;;;10.27;4.73;;;;;;;;;;5050171;28;20644;-40
2022/07/04 07:27:45;;;;;;;8.17;4.77;;;;;;;;;;5047311;28;20202;-40
2022/07/04 07:30:11;;;;;;;16.93;5.80;;;;;;;;;;5046177;28;20170;-40
2022/07/04 07:32:37;;;;;;;11.10;5.00;;;;;;;;;;5047708;28;20167;-40
2022/07/04 07:35:04;;;;;;;10.00;5.03;;;;;;;;;;5050257;28;20510;-40
2022/07/04 07:37:30;;;;;;;8.33;4.77;;;;;;;;;;5044722;28;20206;-40
2022/07/04 07:39:56;;;;;;;9.23;5.33;;;;;;;;;;5044821;28;21162;-41
2022/07/04 07:42:24;;;;;;;10.20;5.47;;;;;;;;;;5048372;28;20202;-41
2022/07/04 07:44:50;;;;;;;8.13;5.00;;;;;;;;;;5051059;28;20621;-41
2022/07/04 07:47:16;;;;;;;11.17;5.33;;;;;;;;;;5044122;28;20942;-40
2022/07/04 07:49:43;;;;;;;8.33;5.27;;;;;;;;;;5043729;28;20484;-40
2022/07/04 07:52:09;;;;;;;11.37;5.67;;;;;;;;;;5048658;28;20590;-40
2022/07/04 07:54:35;;;;;;;14.30;5.90;;;;;;;;;;5047047;28;21004;-40
2022/07/04 07:57:01;;;;;;;7.77;4.97;;;;;;;;;;5046184;28;20163;-40
2022/07/04 07:59:27;;;;;;;10.07;5.77;;;;;;;;;;5044765;28;20234;-43
2022/07/04 08:01:53;;;;;;;8.50;5.53;;;;;;;;;;5047940;28;20177;-42
2022/07/04 08:04:34;;;;;;;9.33;5.60;;;;;;;;;;5046537;28;20565;-42
2022/07/04 08:07:11;;;;;;;11.47;5.47;;;;;;;;;;5040207;28;20173;-40
2022/07/04 08:09:38;;;;;;;12.93;6.00;;;;;;;;;;5043255;28;20217;-40
2022/07/04 08:12:06;;;;;;;10.10;5.60;;;;;;;;;;5048724;28;20189;-40
2022/07/04 08:14:33;;;;;;;7.37;5.10;;;;;;;;;;5044470;28;20179;-41
2022/07/04 08:17:00;;;;;;;7.47;6.00;;;;;;;;;;5041376;28;20175;-40
2022/07/04 08:19:26;;;;;;;8.97;5.43;;;;;;;;;;5042262;28;20900;-40
2022/07/04 08:21:53;;;;;;;7.20;5.50;;;;;;;;;;5048767;28;20170;-40
2022/07/04 08:24:19;;;;;;;12.30;5.60;;;;;;;;;;5036892;28;20205;-41
2022/07/04 08:26:45;;;;;;;10.73;5.77;;;;;;;;;;5041445;28;20288;-41
2022/07/04 08:29:11;;;;;;;8.40;5.40;;;;;;;;;;5043354;28;20591;-41
2022/07/04 08:31:37;;;;;;;7.33;5.63;;;;;;;;;;5046599;28;20757;-41
2022/07/04 08:34:04;;;;;;;12.33;5.40;;;;;;;;;;5041872;28;20187;-41
2022/07/04 08:36:30;;;;;;;7.27;5.57;;;;;;;;;;5043143;28;20668;-41
2022/07/04 08:38:56;;;;;;;9.47;5.50;;;;;;;;;;5042984;28;20781;-40
2022/07/04 08:41:22;;;;;;;15.53;5.73;;;;;;;;;;5046845;28;20176;-41
2022/07/04 08:43:48;;;;;;;13.63;5.50;;;;;;;;;;5041298;28;20174;-43
2022/07/04 08:46:17;;;;;;;11.90;5.47;;;;;;;;;;5044497;28;20513;-43
2022/07/04 08:48:49;;;;;;;9.00;5.77;;;;;;;;;;5050670;28;20532;-43
2022/07/04 08:51:24;;;;;;;8.70;5.77;;;;;;;;;;5051176;28;20213;-41
2022/07/04 08:53:54;;;;;;;12.63;6.57;;;;;;;;;;5041399;28;20408;-40
2022/07/04 08:59:06;;;;;;;12.40;6.53;;;;;;;;;;5045001;28;20216;-43
2022/07/04 09:01:34;;;;;;;13.63;6.00;;;;;;;;;;5048417;28;20182;-41
2022/07/04 09:04:00;;;;;;;11.43;5.83;;;;;;;;;;5047194;28;20244;-41
2022/07/04 09:06:27;;;;;;;11.97;6.80;;;;;;;;;;5030668;28;20615;-41
2022/07/04 09:08:53;;;;;;;10.33;7.07;;;;;;;;;;5040099;28;20588;-41
2022/07/04 09:11:20;;;;;;;18.20;6.93;;;;;;;;;;5046751;28;20568;-41
2022/07/04 09:13:46;;;;;;;10.13;6.30;;;;;;;;;;5047175;28;20855;-41
2022/07/04 09:16:13;;;;;;;11.40;6.53;;;;;;;;;;5045918;28;20188;-41
2022/07/04 09:18:39;;;;;;;12.60;7.00;;;;;;;;;;5048951;28;20397;-41
2022/07/04 09:21:09;;;;;;;13.63;7.40;;;;;;;;;;5046481;28;20179;-41
2022/07/04 09:23:36;;;;;;;10.33;6.30;;;;;;;;;;5051321;28;20287;-41
2022/07/04 09:26:16;;;;;;;10.23;6.23;;;;;;;;;;5049393;28;20181;-41
2022/07/04 09:28:49;;;;;;;7.57;5.50;;;;;;;;;;5046847;28;20524;-41
2022/07/04 09:31:15;;;;;;;12.50;6.63;;;;;;;;;;5047197;28;20499;-41
2022/07/04 09:33:51;;;;;;;14.47;6.57;;;;;;;;;;5045126;28;20177;-41
2022/07/04 09:36:19;;;;;;;14.27;7.40;;;;;;;;;;5051028;28;21013;-41
2022/07/04 09:38:45;;;;;;;13.73;6.30;;;;;;;;;;5043841;28;20340;-40
2022/07/04 09:41:29;;;;;;;14.07;6.60;;;;;;;;;;5047510;28;20274;-41
2022/07/04 09:44:05;;;;;;;11.90;6.80;;;;;;;;;;5043857;28;20182;-41
2022/07/04 09:46:32;;;;;;;11.47;6.77;;;;;;;;;;5048092;28;20423;-41
2022/07/04 09:48:58;;;;;;;15.40;7.57;;;;;;;;;;5047401;28;20985;-40
2022/07/04 09:51:37;;;;;;;15.80;7.70;;;;;;;;;;5044562;28;20175;-41
2022/07/04 09:54:25;;;;;;;12.07;7.67;;;;;;;;;;5044528;28;20644;-41
2022/07/04 09:56:52;;;;;;;12.20;7.53;;;;;;;;;;5048575;28;20175;-40
2022/07/04 09:59:19;;;;;;;12.23;7.57;;;;;;;;;;5049617;28;20395;-40
2022/07/04 10:01:46;;;;;;;14.67;8.03;;;;;;;;;;5042974;28;20706;-41
2022/07/04 10:04:13;;;;;;;15.43;8.27;;;;;;;;;;5051541;28;20568;-41
2022/07/04 10:06:41;;;;;;;16.70;8.70;;;;;;;;;;5052080;28;20213;-41
2022/07/04 10:09:14;;;;;;;13.23;6.93;;;;;;;;;;5046314;28;20283;-41
2022/07/04 10:11:42;;;;;;;11.60;7.10;;;;;;;;;;5044843;28;20257;-41
2022/07/04 10:14:09;;;;;;;15.43;9.23;;;;;;;;;;5049868;28;20383;-41
2022/07/04 10:16:36;;;;;;;12.97;8.57;;;;;;;;;;5048359;28;21092;-41
2022/07/04 10:19:03;;;;;;;12.40;8.00;;;;;;;;;;5045298;28;20194;-41
2022/07/04 10:21:29;;;;;;;13.97;8.00;;;;;;;;;;5050052;28;20166;-41
2022/07/04 10:23:55;;;;;;;14.17;7.27;;;;;;;;;;5049986;28;20693;-42
2022/07/04 10:26:25;;;;;;;13.67;7.40;;;;;;;;;;5048456;28;20171;-41
2022/07/04 10:28:52;;;;;;;12.17;6.93;;;;;;;;;;5053599;28;20500;-41
2022/07/04 10:31:19;;;;;;;11.60;7.33;;;;;;;;;;5042796;28;20753;-42
2022/07/04 10:33:46;;;;;;;12.60;8.13;;;;;;;;;;5047890;28;20244;-41
2022/07/04 10:36:15;;;;;;;11.33;6.83;;;;;;;;;;5048708;28;21694;-41
2022/07/04 10:38:54;;;;;;;14.43;7.43;;;;;;;;;;5053507;28;20645;-41
2022/07/04 10:41:21;;;;;;;13.27;7.47;;;;;;;;;;5051104;28;20808;-42
2022/07/04 10:43:53;;;;;;;12.47;6.60;;;;;;;;;;5049423;28;20175;-42
2022/07/04 10:46:23;;;;;;;9.53;6.27;;;;;;;;;;5047962;28;20746;-42
2022/07/04 10:48:58;;;;;;;15.23;7.33;;;;;;;;;;5047055;28;20668;-41
2022/07/04 10:51:43;;;;;;;13.77;6.97;;;;;;;;;;5044762;28;20188;-40
2022/07/04 10:54:10;;;;;;;7.63;6.00;;;;;;;;;;5049857;28;20872;-42
2022/07/04 10:56:37;;;;;;;10.23;7.23;;;;;;;;;;5047499;28;20830;-41
2022/07/04 10:59:09;;;;;;;13.60;7.30;;;;;;;;;;5048624;28;20196;-41
2022/07/04 11:01:35;;;;;;;13.13;6.60;;;;;;;;;;5048411;28;20626;-40
2022/07/04 11:04:01;;;;;;;11.77;7.37;;;;;;;;;;5049149;28;20475;-40
2022/07/04 11:06:31;;;;;;;15.63;8.00;;;;;;;;;;5044667;28;20161;-41
2022/07/04 11:09:23;;;;;;;12.77;8.10;;;;;;;;;;5039387;28;20672;-41
2022/07/04 11:11:56;;;;;;;18.03;8.47;;;;;;;;;;5043395;28;20183;-41
2022/07/04 11:14:32;;;;;;;18.17;8.03;;;;;;;;;;5042880;28;20191;-41
2022/07/04 11:16:58;;;;;;;13.67;8.07;;;;;;;;;;5046771;28;20222;-41
2022/07/04 11:19:27;;;;;;;12.23;8.17;;;;;;;;;;5043332;28;20214;-41
2022/07/04 11:21:54;;;;;;;13.50;8.73;;;;;;;;;;5043148;28;20171;-41
2022/07/04 11:24:20;;;;;;;17.70;8.97;;;;;;;;;;5041268;28;20412;-42
2022/07/04 11:26:47;;;;;;;13.97;8.93;;;;;;;;;;5041766;28;20463;-42
2022/07/04 11:29:13;;;;;;;12.80;8.57;;;;;;;;;;5046430;28;20280;-41
2022/07/04 11:31:44;;;;;;;15.47;8.73;;;;;;;;;;5052877;28;20203;-41
2022/07/04 11:34:10;;;;;;;14.13;8.13;;;;;;;;;;5045375;28;20305;-40
2022/07/04 11:36:38;;;;;;;12.20;9.20;;;;;;;;;;5049759;28;20182;-42
2022/07/04 11:39:05;;;;;;;12.03;7.57;;;;;;;;;;5050016;28;20241;-42
2022/07/04 11:45:19;;;;;;;17.27;8.63;;;;;;;;;;5049099;28;20284;-42
2022/07/04 11:47:16;;;;;;;17.03;8.27;;;;;;;;;;5042719;28;20472;-41
2022/07/04 11:49:43;;;;;;;9.43;6.97;;;;;;;;;;5052038;28;20569;-40
2022/07/04 11:52:09;;;;;;;13.10;6.63;;;;;;;;;;5050916;28;20176;-41
2022/07/04 11:54:36;;;;;;;13.57;7.13;;;;;;;;;;5041924;28;20526;-41
2022/07/04 11:57:09;;;;;;;12.83;7.20;;;;;;;;;;5046971;28;20631;-39
2022/07/04 11:59:35;;;;;;;13.93;6.80;;;;;;;;;;5051038;28;20355;-41
2022/07/04 12:02:11;;;;;;;15.77;6.67;;;;;;;;;;5046813;28;20175;-41
2022/07/04 12:04:38;;;;;;;12.53;6.50;;;;;;;;;;5048004;28;20182;-40
2022/07/04 12:07:20;;;;;;;9.00;5.60;;;;;;;;;;5045420;28;20170;-40
2022/07/04 12:09:47;;;;;;;12.13;6.50;;;;;;;;;;5044430;28;20687;-39
2022/07/04 12:12:17;;;;;;;9.87;6.00;;;;;;;;;;5049156;28;20182;-41
2022/07/04 12:14:58;;;;;;;12.30;5.70;;;;;;;;;;5053245;28;20290;-41
2022/07/04 12:17:29;;;;;;;8.37;5.83;;;;;;;;;;5050662;28;20525;-40
2022/07/04 12:20:00;;;;;;;13.97;5.77;;;;;;;;;;5049244;28;20246;-40
2022/07/04 12:22:29;;;;;;;11.30;5.50;;;;;;;;;;5048975;28;20210;-39
2022/07/04 12:24:56;;;;;;;12.90;5.43;;;;;;;;;;5049455;28;20689;-41
2022/07/04 12:27:22;;;;;;;12.47;5.80;;;;;;;;;;5050678;28;20643;-40
2022/07/04 12:29:51;;;;;;;8.90;5.00;;;;;;;;;;5049640;28;20225;-41
2022/07/04 12:32:18;;;;;;;9.33;5.30;;;;;;;;;;5048946;28;20182;-41
2022/07/04 12:34:44;;;;;;;8.60;5.17;;;;;;;;;;5050191;28;20183;-41
2022/07/04 12:37:12;;;;;;;8.73;5.40;;;;;;;;;;5053990;28;20622;-41
2022/07/04 12:39:39;;;;;;;12.47;5.50;;;;;;;;;;5054857;28;20553;-41
2022/07/04 12:42:11;;;;;;;11.23;5.03;;;;;;;;;;5045093;28;20191;-41
2022/07/04 12:44:38;;;;;;;12.57;5.07;;;;;;;;;;5052492;28;20187;-41
2022/07/04 12:47:05;;;;;;;9.63;4.90;;;;;;;;;;5053008;28;20179;-41
2022/07/04 12:49:31;;;;;;;8.00;4.70;;;;;;;;;;5053092;28;20274;-41
2022/07/04 12:52:07;;;;;;;9.70;5.50;;;;;;;;;;5051599;28;20186;-41
2022/07/04 12:54:34;;;;;;;8.83;4.80;;;;;;;;;;5049387;28;20559;-39
2022/07/04 12:57:07;;;;;;;5.30;4.70;;;;;;;;;;5054730;28;20356;-41
2022/07/04 12:59:34;;;;;;;9.97;4.63;;;;;;;;;;5049058;28;20221;-41
2022/07/04 13:02:00;;;;;;;9.27;4.60;;;;;;;;;;5049597;28;20170;-41
2022/07/04 13:04:26;;;;;;;9.63;5.10;;;;;;;;;;5048874;28;20303;-40
2022/07/04 13:06:52;;;;;;;7.37;4.73;;;;;;;;;;5050692;28;20579;-41
2022/07/04 13:09:18;;;;;;;12.40;5.20;;;;;;;;;;5045356;28;20188;-41
2022/07/04 13:14:29;;;;;;;9.00;4.83;;;;;;;;;;5049132;28;20749;-41
2022/07/04 13:16:55;;;;;;;9.77;4.93;;;;;;;;;;5044731;28;20188;-41
2022/07/04 13:19:21;;;;;;;6.77;4.63;;;;;;;;;;5047171;28;20201;-41
2022/07/04 13:21:47;;;;;;;8.48;4.50;;;;;;;;;;5049148;28;20308;-41
2022/07/04 13:24:14;;;;;;;8.25;5.10;;;;;;;;;;5056486;28;20460;-41
2022/07/04 13:26:42;;;;;;;6.80;4.10;;;;;;;;;;5053221;28;20196;-41
2022/07/04 13:29:08;;;;;;;10.25;4.22;;;;;;;;;;5046257;28;20749;-41
2022/07/04 13:31:34;;;;;;;9.30;4.40;;;;;;;;;;5052553;28;20702;-41
2022/07/04 13:34:01;;;;;;;11.38;4.32;;;;;;;;;;5054156;28;20190;-41
2022/07/04 13:36:27;;;;;;;7.85;4.43;;;;;;;;;;5047633;28;20456;-41
2022/07/04 13:38:53;;;;;;;6.28;4.47;;;;;;;;;;5052970;28;20315;-41
2022/07/04 13:41:19;;;;;;;9.05;4.53;;;;;;;;;;5051694;28;20316;-41
2022/07/04 13:43:45;;;;;;;8.57;4.28;;;;;;;;;;5050308;28;20190;-41
2022/07/04 13:46:11;;;;;;;9.15;4.55;;;;;;;;;;5043333;28;20859;-41
2022/07/04 13:48:37;;;;;;;11.05;4.70;;;;;;;;;;5046460;28;20175;-40
2022/07/04 13:51:03;;;;;;;6.18;4.28;;;;;;;;;;5050665;28;20178;-41
2022/07/04 13:53:31;;;;;;;8.18;4.03;;;;;;;;;;5052236;28;20179;-41
2022/07/04 13:55:57;;;;;;;8.15;4.03;;;;;;;;;;5048383;28;20690;-41
2022/07/04 13:58:23;;;;;;;9.18;4.18;;;;;;;;;;5049569;28;20361;-42
2022/07/04 14:00:49;;;;;;;10.63;4.88;;;;;;;;;;5049824;28;20224;-42
2022/07/04 14:03:16;;;;;;;8.95;4.30;;;;;;;;;;5043957;28;20344;-42
2022/07/04 14:05:42;;;;;;;10.00;4.30;;;;;;;;;;5044018;28;20810;-42
2022/07/04 14:08:08;;;;;;;8.55;4.40;;;;;;;;;;5042487;28;20680;-42
2022/07/04 14:10:35;;;;;;;9.10;4.38;;;;;;;;;;5047364;28;20214;-42
2022/07/04 14:13:01;;;;;;;9.85;4.30;;;;;;;;;;5048989;28;20318;-42
2022/07/04 14:15:27;;;;;;;6.95;4.03;;;;;;;;;;5049242;28;20702;-41
2022/07/04 14:17:53;;;;;;;6.72;3.85;;;;;;;;;;5041859;28;20842;-41
2022/07/04 14:20:20;;;;;;;7.15;3.72;;;;;;;;;;5044570;28;20745;-42
2022/07/04 14:22:46;;;;;;;10.02;4.30;;;;;;;;;;5044770;28;20733;-41
2022/07/04 14:25:12;;;;;;;10.82;4.15;;;;;;;;;;5044453;28;20745;-41
2022/07/04 14:27:38;;;;;;;9.57;4.03;;;;;;;;;;5044292;28;20442;-42
2022/07/04 14:30:04;;;;;;;8.40;4.10;;;;;;;;;;5040230;28;20175;-42
2022/07/04 14:32:31;;;;;;;10.65;3.90;;;;;;;;;;5042847;28;20834;-42
2022/07/04 14:34:57;;;;;;;8.68;3.63;;;;;;;;;;5046143;28;20181;-42
2022/07/04 14:37:23;;;;;;;7.70;3.90;;;;;;;;;;5044189;28;20268;-43
2022/07/04 14:39:49;;;;;;;7.25;4.00;;;;;;;;;;5047495;28;20669;-42
2022/07/04 14:42:16;;;;;;;7.75;3.83;;;;;;;;;;5051986;28;20271;-42
2022/07/04 14:44:42;;;;;;;8.43;4.25;;;;;;;;;;5051392;28;20705;-42
2022/07/04 14:47:08;;;;;;;7.07;4.00;;;;;;;;;;5049830;28;20761;-41
2022/07/04 14:49:34;;;;;;;15.20;4.53;;;;;;;;;;5049152;28;20507;-42
2022/07/04 14:52:01;;;;;;;7.57;3.95;;;;;;;;;;5051628;28;20183;-41